Elbella — 9HA2358 — position and weather

sailwx.info

Track history (hours):
 
Tides and Currents Weather Stations Pressure Air Temp Water Temp Dewpoint Dewpoint Depression Visibility Wind Speed Wind Dir Waves Ship Positions

Elbella

Last reported at 2015-Apr-19 15:24 UTC. Time now 2015-Apr-21 08:16 UTC.
Position N 35°51' E 014°38'.

Length 176 m; draft 9.4 m.

Type: Ship (hazmat cat A). MMSI: 248422000.

Date/timePositionNaut miles runAvg speedWind from/ knotsBaromVisibWave heightAir tempDewpointWater temp
2015-Apr-19 15:24N 35°51' E 014°38'0 0.0
2015-Apr-19 14:24N 35°51' E 014°38'0 0.0
2015-Apr-19 13:33N 35°51' E 014°38'0 0.0
2015-Apr-19 12:33N 35°51' E 014°38'0 0.1
2015-Apr-19 11:30N 35°51' E 014°39'0 0.0
2015-Apr-19 10:33N 35°51' E 014°39'0 0.0
2015-Apr-19 09:03N 35°51' E 014°39'0 0.0
2015-Apr-19 08:33N 35°51' E 014°39'0 0.1
2015-Apr-19 07:33N 35°51' E 014°39'0 0.1
2015-Apr-19 06:33N 35°51' E 014°39'0 0.2
2015-Apr-19 05:21N 35°52' E 014°39'0 0.1
2015-Apr-19 04:33N 35°52' E 014°39'0 0.1
2015-Apr-19 03:33N 35°52' E 014°39'0 0.0
2015-Apr-19 02:33N 35°52' E 014°39'0 0.0
2015-Apr-19 01:27N 35°52' E 014°39'0 0.0
2015-Apr-19 00:33N 35°52' E 014°39'0 0.0
2015-Apr-18 22:30N 35°52' E 014°39'0 0.0
2015-Apr-18 21:30N 35°52' E 014°39'0 0.0
2015-Apr-18 20:33N 35°51' E 014°39'0 0.0
2015-Apr-18 19:30N 35°52' E 014°39'0 0.0
2015-Apr-18 18:27N 35°52' E 014°39'0 0.0
2015-Apr-18 17:27N 35°52' E 014°39'0 0.2
2015-Apr-18 16:33N 35°51' E 014°39'0 0.1
2015-Apr-18 15:33N 35°51' E 014°39'0 0.0
2015-Apr-18 14:33N 35°51' E 014°39'0 0.0
2015-Apr-18 13:33N 35°51' E 014°39'0 0.0
2015-Apr-18 12:33N 35°51' E 014°39'0 0.0
2015-Apr-18 11:33N 35°51' E 014°39'0 0.1
2015-Apr-18 10:33N 35°52' E 014°39'0 0.1
2015-Apr-18 09:33N 35°52' E 014°39'0 0.1
2015-Apr-18 08:33N 35°52' E 014°39'0 0.0
2015-Apr-18 07:33N 35°52' E 014°39'0 0.0
2015-Apr-18 06:33N 35°52' E 014°39'0 0.0
2015-Apr-18 05:33N 35°52' E 014°39'0 0.0
2015-Apr-18 01:33N 35°52' E 014°39'0 0.0
2015-Apr-18 00:33N 35°52' E 014°39'0 0.0
2015-Apr-17 23:33N 35°52' E 014°39'0 0.0
2015-Apr-17 22:33N 35°52' E 014°39'0 0.0
2015-Apr-17 21:33N 35°52' E 014°39'0 0.0
2015-Apr-17 20:33N 35°52' E 014°39'0 0.0
2015-Apr-17 19:33N 35°52' E 014°39'0 0.0
2015-Apr-17 18:33N 35°52' E 014°39'0 0.0
2015-Apr-17 17:33N 35°52' E 014°39'0 0.0
2015-Apr-17 16:33N 35°52' E 014°39'0 0.0
2015-Apr-17 15:33N 35°52' E 014°39'0 0.0
2015-Apr-17 14:33N 35°52' E 014°39'0 0.1
2015-Apr-17 13:33N 35°52' E 014°39'5 5.4
2015-Apr-17 12:33N 35°49' E 014°32'0 0.0
2015-Apr-16 23:18N 35°49' E 014°32'0 0.0
2015-Apr-16 22:33N 35°49' E 014°32'0 0.0
2015-Apr-16 20:12N 35°49' E 014°32'2 1.0
2015-Apr-16 18:33N 35°49' E 014°34'3 2.4
2015-Apr-16 17:31N 35°49' E 014°37'1 1.4
2015-Apr-16 16:33N 35°49' E 014°39'3 1.6
2015-Apr-16 14:33N 35°52' E 014°41'0 0.0
2015-Apr-16 13:33N 35°52' E 014°41'0 0.0
2015-Apr-16 12:33N 35°52' E 014°41'0 0.1
2015-Apr-16 11:34N 35°52' E 014°42'3 2.7
2015-Apr-16 10:34N 35°49' E 014°42'10 9.6
2015-Apr-16 09:34N 35°46' E 014°54'1111.2
2015-Apr-16 08:33N 35°46' E 015°08'1111.1
2015-Apr-16 07:33N 35°47' E 015°21'1313.4
2015-Apr-16 06:34N 35°48' E 015°38'40112.2
2015-Apr-14 21:33N 35°50' E 023°53'1212.2
2015-Apr-14 20:33N 35°51' E 024°07'1211.8
2015-Apr-14 19:33N 35°54' E 024°22'1511.9
2015-Apr-14 18:18N 35°55' E 024°40'912.0
2015-Apr-14 17:33N 35°57' E 024°51'1211.9
2015-Apr-14 16:33N 35°58' E 025°06'1211.8
2015-Apr-14 15:33N 36°00' E 025°20'1212.2
2015-Apr-14 14:33N 36°02' E 025°35'1212.3
2015-Apr-14 13:33N 36°04' E 025°50'1312.7
2015-Apr-14 12:33N 36°06' E 026°05'1212.1
2015-Apr-14 11:32N 36°07' E 026°21'1212.0
2015-Apr-14 10:33N 36°06' E 026°35'1514.9
2015-Apr-14 09:33N 36°03' E 026°53'1817.7
2015-Apr-14 08:33N 35°60' E 027°15'279 8.7
2015-Apr-13 00:33N 34°24' E 032°36'1717.5
2015-Apr-12 23:33N 34°20' E 032°56'1917.3
2015-Apr-12 22:27N 34°16' E 033°19'  
Track history (hours):
 
Tides and Currents Weather Stations Pressure Air Temp Water Temp Dewpoint Dewpoint Depression Visibility Wind Speed Wind Dir Waves Ship Positions

Elbella

Last reported at 2015-Apr-19 15:24 UTC. Time now 2015-Apr-21 08:16 UTC.
Position N 35°51' E 014°38'.

Length 176 m; draft 9.4 m.

Type: Ship (hazmat cat A). MMSI: 248422000.

Date/timePositionNaut miles runAvg speedWind from/ knotsBaromVisibWave heightAir tempDewpointWater temp
2015-Apr-19 15:24N 35°51' E 014°38'0 0.0
2015-Apr-19 14:24N 35°51' E 014°38'0 0.0
2015-Apr-19 13:33N 35°51' E 014°38'0 0.0
2015-Apr-19 12:33N 35°51' E 014°38'0 0.1
2015-Apr-19 11:30N 35°51' E 014°39'0 0.0
2015-Apr-19 10:33N 35°51' E 014°39'0 0.0
2015-Apr-19 09:03N 35°51' E 014°39'0 0.0
2015-Apr-19 08:33N 35°51' E 014°39'0 0.1
2015-Apr-19 07:33N 35°51' E 014°39'0 0.1
2015-Apr-19 06:33N 35°51' E 014°39'0 0.2
2015-Apr-19 05:21N 35°52' E 014°39'0 0.1
2015-Apr-19 04:33N 35°52' E 014°39'0 0.1
2015-Apr-19 03:33N 35°52' E 014°39'0 0.0
2015-Apr-19 02:33N 35°52' E 014°39'0 0.0
2015-Apr-19 01:27N 35°52' E 014°39'0 0.0
2015-Apr-19 00:33N 35°52' E 014°39'0 0.0
2015-Apr-18 22:30N 35°52' E 014°39'0 0.0
2015-Apr-18 21:30N 35°52' E 014°39'0 0.0
2015-Apr-18 20:33N 35°51' E 014°39'0 0.0
2015-Apr-18 19:30N 35°52' E 014°39'0 0.0
2015-Apr-18 18:27N 35°52' E 014°39'0 0.0
2015-Apr-18 17:27N 35°52' E 014°39'0 0.2
2015-Apr-18 16:33N 35°51' E 014°39'0 0.1
2015-Apr-18 15:33N 35°51' E 014°39'0 0.0
2015-Apr-18 14:33N 35°51' E 014°39'0 0.0
2015-Apr-18 13:33N 35°51' E 014°39'0 0.0
2015-Apr-18 12:33N 35°51' E 014°39'0 0.0
2015-Apr-18 11:33N 35°51' E 014°39'0 0.1
2015-Apr-18 10:33N 35°52' E 014°39'0 0.1
2015-Apr-18 09:33N 35°52' E 014°39'0 0.1
2015-Apr-18 08:33N 35°52' E 014°39'0 0.0
2015-Apr-18 07:33N 35°52' E 014°39'0 0.0
2015-Apr-18 06:33N 35°52' E 014°39'0 0.0
2015-Apr-18 05:33N 35°52' E 014°39'0 0.0
2015-Apr-18 01:33N 35°52' E 014°39'0 0.0
2015-Apr-18 00:33N 35°52' E 014°39'0 0.0
2015-Apr-17 23:33N 35°52' E 014°39'0 0.0
2015-Apr-17 22:33N 35°52' E 014°39'0 0.0
2015-Apr-17 21:33N 35°52' E 014°39'0 0.0
2015-Apr-17 20:33N 35°52' E 014°39'0 0.0
2015-Apr-17 19:33N 35°52' E 014°39'0 0.0
2015-Apr-17 18:33N 35°52' E 014°39'0 0.0
2015-Apr-17 17:33N 35°52' E 014°39'0 0.0
2015-Apr-17 16:33N 35°52' E 014°39'0 0.0
2015-Apr-17 15:33N 35°52' E 014°39'0 0.0
2015-Apr-17 14:33N 35°52' E 014°39'0 0.1
2015-Apr-17 13:33N 35°52' E 014°39'5 5.4
2015-Apr-17 12:33N 35°49' E 014°32'0 0.0
2015-Apr-16 23:18N 35°49' E 014°32'0 0.0
2015-Apr-16 22:33N 35°49' E 014°32'0 0.0
2015-Apr-16 20:12N 35°49' E 014°32'2 1.0
2015-Apr-16 18:33N 35°49' E 014°34'3 2.4
2015-Apr-16 17:31N 35°49' E 014°37'1 1.4
2015-Apr-16 16:33N 35°49' E 014°39'3 1.6
2015-Apr-16 14:33N 35°52' E 014°41'0 0.0
2015-Apr-16 13:33N 35°52' E 014°41'0 0.0
2015-Apr-16 12:33N 35°52' E 014°41'0 0.1
2015-Apr-16 11:34N 35°52' E 014°42'3 2.7
2015-Apr-16 10:34N 35°49' E 014°42'10 9.6
2015-Apr-16 09:34N 35°46' E 014°54'1111.2
2015-Apr-16 08:33N 35°46' E 015°08'1111.1
2015-Apr-16 07:33N 35°47' E 015°21'1313.4
2015-Apr-16 06:34N 35°48' E 015°38'40112.2
2015-Apr-14 21:33N 35°50' E 023°53'1212.2
2015-Apr-14 20:33N 35°51' E 024°07'1211.8
2015-Apr-14 19:33N 35°54' E 024°22'1511.9
2015-Apr-14 18:18N 35°55' E 024°40'912.0
2015-Apr-14 17:33N 35°57' E 024°51'1211.9
2015-Apr-14 16:33N 35°58' E 025°06'1211.8
2015-Apr-14 15:33N 36°00' E 025°20'1212.2
2015-Apr-14 14:33N 36°02' E 025°35'1212.3
2015-Apr-14 13:33N 36°04' E 025°50'1312.7
2015-Apr-14 12:33N 36°06' E 026°05'1212.1
2015-Apr-14 11:32N 36°07' E 026°21'1212.0
2015-Apr-14 10:33N 36°06' E 026°35'1514.9
2015-Apr-14 09:33N 36°03' E 026°53'1817.7
2015-Apr-14 08:33N 35°60' E 027°15'279 8.7
2015-Apr-13 00:33N 34°24' E 032°36'1717.5
2015-Apr-12 23:33N 34°20' E 032°56'1917.3
2015-Apr-12 22:27N 34°16' E 033°19'  

Dump ship's entire track history